createdAt,value
2017-08-21T00:02:17.085Z,52.30
2017-08-21T00:04:44.602Z,53.00
2017-08-21T00:07:12.897Z,53.40
2017-08-21T00:09:40.433Z,53.30
2017-08-21T00:12:08.755Z,53.20
2017-08-21T00:14:36.318Z,53.20
2017-08-21T00:17:03.842Z,52.70
2017-08-21T00:19:31.431Z,52.70
2017-08-21T00:21:58.950Z,53.30
2017-08-21T00:24:27.279Z,53.70
2017-08-21T00:26:54.804Z,53.70
2017-08-21T00:29:22.329Z,53.50
2017-08-21T00:31:49.842Z,53.40
2017-08-21T00:34:17.361Z,53.90
2017-08-21T00:36:45.682Z,53.60
2017-08-21T00:39:13.210Z,53.60
2017-08-21T00:41:40.734Z,53.40
2017-08-21T00:44:08.249Z,53.60
2017-08-21T00:46:35.771Z,53.50
2017-08-21T00:49:04.090Z,53.40
2017-08-21T00:51:31.609Z,53.30
2017-08-21T00:53:59.125Z,53.70
2017-08-21T00:56:26.656Z,53.20
2017-08-21T00:58:54.174Z,52.60
2017-08-21T01:01:22.482Z,52.20
2017-08-21T01:03:50.010Z,52.10
2017-08-21T01:06:18.299Z,52.20
2017-08-21T01:08:45.887Z,52.10
2017-08-21T01:11:13.410Z,51.90
2017-08-21T01:13:40.961Z,52.00
2017-08-21T01:16:09.246Z,53.50
2017-08-21T01:18:36.766Z,53.50
2017-08-21T01:21:04.299Z,54.00
2017-08-21T01:23:31.862Z,53.90
2017-08-21T01:25:59.419Z,54.10
2017-08-21T01:28:26.949Z,53.90
2017-08-21T01:30:54.474Z,54.40
2017-08-21T01:33:22.769Z,55.00
2017-08-21T01:35:51.062Z,55.30
2017-08-21T01:38:18.609Z,55.30
2017-08-21T01:40:46.132Z,55.50
2017-08-21T01:43:13.654Z,55.20
2017-08-21T01:45:41.172Z,55.10
2017-08-21T01:48:09.489Z,54.40
2017-08-21T01:50:37.041Z,54.30
2017-08-21T01:53:04.599Z,53.70
2017-08-21T01:55:32.126Z,53.50
2017-08-21T01:58:00.414Z,54.20
2017-08-21T02:00:27.941Z,54.10
2017-08-21T02:02:55.490Z,54.30
2017-08-21T02:05:23.018Z,55.10
2017-08-21T02:07:50.547Z,56.20
2017-08-21T02:10:18.063Z,56.70
2017-08-21T02:12:45.595Z,57.00
2017-08-21T02:15:13.169Z,57.10
2017-08-21T02:17:40.689Z,56.80
2017-08-21T02:20:08.266Z,57.10
2017-08-21T02:22:35.782Z,57.20
2017-08-21T02:25:04.077Z,57.70
2017-08-21T02:27:31.622Z,57.70
2017-08-21T02:29:59.137Z,58.20
2017-08-21T02:32:26.663Z,58.80
2017-08-21T02:34:54.179Z,59.10
2017-08-21T02:37:21.694Z,59.70
2017-08-21T02:39:49.245Z,60.00
2017-08-21T02:42:16.777Z,60.40
2017-08-21T02:44:44.313Z,60.80
2017-08-21T02:47:11.829Z,60.80
2017-08-21T02:49:39.351Z,61.50
2017-08-21T02:52:06.901Z,60.30
2017-08-21T02:54:35.201Z,60.40
2017-08-21T02:57:02.755Z,60.30
2017-08-21T02:59:30.274Z,60.90
2017-08-21T03:01:57.846Z,60.50
2017-08-21T03:04:26.167Z,59.90
2017-08-21T03:06:53.690Z,59.80
2017-08-21T03:09:21.218Z,59.20
2017-08-21T03:11:48.746Z,58.90
2017-08-21T03:14:16.283Z,58.30
2017-08-21T03:16:43.825Z,57.80
2017-08-21T03:19:11.350Z,58.00
2017-08-21T03:21:38.885Z,58.10
2017-08-21T03:24:06.413Z,58.40
2017-08-21T03:26:33.998Z,59.20
2017-08-21T03:29:01.558Z,59.40
2017-08-21T03:31:29.085Z,59.00
2017-08-21T03:33:56.668Z,58.40
2017-08-21T03:36:24.196Z,58.10
2017-08-21T03:38:51.713Z,58.20
2017-08-21T03:41:19.257Z,57.70
2017-08-21T03:43:46.782Z,57.60
2017-08-21T03:46:14.306Z,57.20
2017-08-21T03:48:41.829Z,57.40
2017-08-21T03:51:09.349Z,57.90
2017-08-21T03:53:36.895Z,58.50
2017-08-21T03:56:04.417Z,58.70
2017-08-21T03:58:31.945Z,59.00
2017-08-21T04:00:59.465Z,59.50
2017-08-21T04:03:27.749Z,59.20
2017-08-21T04:05:55.306Z,59.20
2017-08-21T04:08:22.834Z,58.30
2017-08-21T04:10:50.363Z,58.30
2017-08-21T04:13:17.893Z,58.70
2017-08-21T04:15:45.414Z,59.10
2017-08-21T04:18:12.966Z,59.20
2017-08-21T04:20:40.489Z,58.60
2017-08-21T04:23:08.018Z,58.40
2017-08-21T04:25:35.545Z,57.90
2017-08-21T04:28:03.675Z,57.50
2017-08-21T04:30:31.333Z,57.80
2017-08-21T04:32:58.894Z,58.30
2017-08-21T04:35:26.414Z,58.90
2017-08-21T04:37:54.748Z,59.20
2017-08-21T04:40:22.266Z,59.10
2017-08-21T04:42:49.859Z,59.40
2017-08-21T04:45:17.399Z,59.50
2017-08-21T04:47:44.926Z,59.20
2017-08-21T04:50:13.215Z,58.90
2017-08-21T04:52:40.743Z,58.70
2017-08-21T04:55:08.373Z,58.70
2017-08-21T04:57:35.899Z,58.60
2017-08-21T05:00:03.437Z,58.20
2017-08-21T05:02:31.733Z,57.80
2017-08-21T05:04:59.261Z,57.80
2017-08-21T05:07:27.587Z,58.60
2017-08-21T05:09:55.135Z,58.60
2017-08-21T05:12:22.673Z,58.30
2017-08-21T05:14:50.203Z,58.70
2017-08-21T05:17:17.725Z,59.10
2017-08-21T05:19:45.273Z,58.80
2017-08-21T05:22:12.798Z,58.80
2017-08-21T05:24:41.109Z,59.00
2017-08-21T05:27:08.631Z,58.90
2017-08-21T05:29:36.935Z,59.60
2017-08-21T05:34:38.309Z,60.00
2017-08-21T05:37:05.863Z,60.20
2017-08-21T05:39:33.393Z,60.60
2017-08-21T05:42:00.986Z,60.90
2017-08-21T05:44:28.514Z,61.70
2017-08-21T05:46:56.118Z,61.70
2017-08-21T05:49:23.686Z,61.60
2017-08-21T05:51:51.305Z,61.70
2017-08-21T05:54:18.834Z,60.70
2017-08-21T05:56:47.129Z,60.60
2017-08-21T05:59:14.666Z,60.60
2017-08-21T06:01:42.994Z,60.00
2017-08-21T06:04:10.528Z,60.00
2017-08-21T06:06:38.060Z,59.50
2017-08-21T06:09:06.367Z,61.30
2017-08-21T06:11:33.946Z,61.30
2017-08-21T06:14:01.506Z,61.60
2017-08-21T06:16:29.038Z,61.90
2017-08-21T06:18:56.562Z,61.80
2017-08-21T06:21:24.930Z,61.00
2017-08-21T06:23:52.463Z,60.90
2017-08-21T06:26:20.014Z,61.30
2017-08-21T06:28:47.541Z,61.30
2017-08-21T06:31:15.074Z,61.70
2017-08-21T06:33:42.594Z,61.00
2017-08-21T06:36:10.122Z,62.20
2017-08-21T06:38:37.669Z,62.80
2017-08-21T06:41:05.190Z,63.00
2017-08-21T06:43:32.712Z,62.60
2017-08-21T06:46:00.234Z,61.60
2017-08-21T06:48:28.533Z,59.60
2017-08-21T06:50:56.079Z,59.60
2017-08-21T06:53:23.677Z,58.90
2017-08-21T06:55:51.206Z,59.00
2017-08-21T06:58:18.729Z,58.20
2017-08-21T07:00:46.254Z,56.80
2017-08-21T07:03:13.804Z,55.60
2017-08-21T07:05:41.318Z,55.10
2017-08-21T07:08:09.614Z,56.10
2017-08-21T07:10:37.137Z,56.10
2017-08-21T07:13:04.650Z,56.70
2017-08-21T07:15:32.198Z,55.20
2017-08-21T07:17:59.725Z,56.00
2017-08-21T07:20:28.026Z,57.50
2017-08-21T07:22:55.580Z,57.50
2017-08-21T07:25:23.102Z,57.40
2017-08-21T07:27:50.673Z,56.90
2017-08-21T07:30:18.974Z,55.00
2017-08-21T07:32:46.502Z,55.00
2017-08-21T07:35:14.788Z,53.90
2017-08-21T07:37:43.105Z,52.40
2017-08-21T07:40:10.651Z,52.30
2017-08-21T07:42:38.177Z,50.90
2017-08-21T07:45:06.470Z,53.00
2017-08-21T07:47:34.005Z,52.90
2017-08-21T07:50:02.289Z,53.50
2017-08-21T07:52:30.606Z,52.50
2017-08-21T07:54:58.134Z,52.50
2017-08-21T07:57:25.654Z,52.00
2017-08-21T07:59:53.186Z,50.90
2017-08-21T08:02:20.710Z,51.40
2017-08-21T08:04:48.258Z,51.10
2017-08-21T08:07:16.549Z,50.30
2017-08-21T08:09:44.082Z,50.30
2017-08-21T08:12:12.372Z,51.40
2017-08-21T08:14:40.666Z,50.80
2017-08-21T08:17:08.222Z,50.70
2017-08-21T08:19:35.751Z,51.10
2017-08-21T08:22:04.041Z,51.10
2017-08-21T08:24:32.336Z,51.70
2017-08-21T08:26:59.854Z,51.60
2017-08-21T08:29:27.410Z,51.70
2017-08-21T08:31:54.926Z,51.40
2017-08-21T08:34:22.451Z,49.80
2017-08-21T08:36:49.974Z,51.10
2017-08-21T08:39:17.489Z,51.10
2017-08-21T08:41:45.038Z,52.00
2017-08-21T08:44:12.562Z,51.90
2017-08-21T08:46:40.086Z,50.90
2017-08-21T08:49:07.605Z,51.00
2017-08-21T08:51:35.125Z,50.00
2017-08-21T08:54:02.681Z,49.90
2017-08-21T08:56:30.194Z,50.00
2017-08-21T08:58:57.710Z,50.60
2017-08-21T09:01:25.236Z,51.70
2017-08-21T09:03:52.761Z,50.30
2017-08-21T09:06:20.305Z,49.90
2017-08-21T09:08:48.598Z,50.60
2017-08-21T09:11:16.122Z,50.60
2017-08-21T09:13:44.458Z,50.00
2017-08-21T09:16:11.986Z,49.80
2017-08-21T09:18:39.538Z,50.20
2017-08-21T09:21:07.062Z,48.40
2017-08-21T09:23:34.586Z,47.50
2017-08-21T09:26:02.118Z,48.10
2017-08-21T09:28:29.650Z,48.20
2017-08-21T09:30:57.981Z,48.00
2017-08-21T09:33:25.501Z,47.30
2017-08-21T09:35:53.786Z,47.10
2017-08-21T09:38:21.309Z,47.60
2017-08-21T09:40:48.833Z,46.00
2017-08-21T09:43:16.373Z,46.00
2017-08-21T09:45:43.897Z,45.00
2017-08-21T09:48:12.190Z,43.70
2017-08-21T09:50:39.710Z,43.70
2017-08-21T09:53:07.234Z,43.70
2017-08-21T09:55:34.786Z,44.90
2017-08-21T09:58:02.307Z,42.30
2017-08-21T10:00:30.593Z,43.70
2017-08-21T10:02:58.146Z,43.60
2017-08-21T10:05:26.434Z,42.10
2017-08-21T10:07:53.982Z,42.10
2017-08-21T10:10:22.274Z,43.10
2017-08-21T10:12:49.793Z,43.10
2017-08-21T10:15:17.322Z,43.50
2017-08-21T10:17:44.869Z,44.20
2017-08-21T10:20:12.414Z,43.20
2017-08-21T10:22:39.942Z,41.90
2017-08-21T10:25:08.238Z,42.30
2017-08-21T10:27:35.763Z,42.30
2017-08-21T10:30:03.282Z,42.10
2017-08-21T10:32:30.957Z,41.10
2017-08-21T10:34:58.483Z,41.50
2017-08-21T10:37:26.014Z,42.10
2017-08-21T10:39:54.298Z,39.00
2017-08-21T10:42:22.588Z,39.30
2017-08-21T10:44:50.146Z,39.20
2017-08-21T10:47:17.665Z,40.90
2017-08-21T10:49:45.187Z,41.80
2017-08-21T10:52:12.701Z,41.30
2017-08-21T10:54:40.989Z,40.60
2017-08-21T10:57:08.557Z,40.50
2017-08-21T10:59:36.079Z,40.30
2017-08-21T11:02:03.602Z,39.60
2017-08-21T11:04:31.127Z,40.70
2017-08-21T11:06:58.646Z,40.60
2017-08-21T11:09:26.200Z,40.20
2017-08-21T11:11:53.909Z,36.90
2017-08-21T11:14:21.434Z,36.60
2017-08-21T11:16:48.954Z,36.70
2017-08-21T11:19:16.514Z,39.30
2017-08-21T11:21:44.063Z,41.50
2017-08-21T11:24:11.629Z,41.20
2017-08-21T11:26:39.154Z,41.20
2017-08-21T11:29:06.677Z,41.50
2017-08-21T11:31:34.202Z,42.00
2017-08-21T11:34:01.761Z,43.60
2017-08-21T11:36:29.282Z,43.00
2017-08-21T11:38:56.817Z,41.50
2017-08-21T11:41:25.118Z,41.10
2017-08-21T11:43:52.641Z,40.80
2017-08-21T11:46:20.986Z,40.40
2017-08-21T11:48:48.510Z,40.40
2017-08-21T11:51:16.036Z,40.30
2017-08-21T11:53:43.556Z,40.60
2017-08-21T11:56:11.070Z,38.70
2017-08-21T11:58:39.394Z,38.90
2017-08-21T12:01:06.916Z,38.90
2017-08-21T12:03:34.466Z,39.80
2017-08-21T12:06:02.763Z,38.20
2017-08-21T12:08:30.282Z,38.20
2017-08-21T12:10:57.829Z,39.70
2017-08-21T12:13:25.352Z,40.80
2017-08-21T12:15:52.870Z,41.60
2017-08-21T12:18:21.158Z,41.10
2017-08-21T12:20:49.446Z,40.70
2017-08-21T12:23:16.969Z,40.60
2017-08-21T12:25:44.490Z,40.60
2017-08-21T12:28:12.041Z,40.90
2017-08-21T12:30:39.574Z,41.40
2017-08-21T12:33:07.125Z,41.70
2017-08-21T12:35:35.410Z,43.30
2017-08-21T12:38:02.941Z,43.30
2017-08-21T12:40:30.490Z,43.40
2017-08-21T12:42:58.009Z,44.20
2017-08-21T12:45:25.550Z,45.50
2017-08-21T12:47:53.077Z,45.80
2017-08-21T12:50:21.375Z,46.20
2017-08-21T12:52:48.928Z,46.20
2017-08-21T12:55:16.454Z,45.30
2017-08-21T12:57:43.981Z,45.40
2017-08-21T13:00:11.505Z,43.60
2017-08-21T13:02:39.794Z,42.50
2017-08-21T13:05:07.342Z,42.50
2017-08-21T13:07:34.865Z,41.50
2017-08-21T13:10:02.384Z,41.60
2017-08-21T13:12:29.906Z,41.30
2017-08-21T13:14:58.227Z,39.10
2017-08-21T13:17:25.790Z,39.10
2017-08-21T13:19:53.314Z,38.30
2017-08-21T13:22:20.830Z,38.10
2017-08-21T13:24:48.457Z,38.00
2017-08-21T13:27:16.031Z,37.50
2017-08-21T13:29:43.586Z,36.10
2017-08-21T13:32:11.110Z,35.70
2017-08-21T13:34:38.642Z,35.10
2017-08-21T13:37:48.219Z,33.50
2017-08-21T13:40:15.744Z,32.30
2017-08-21T13:42:43.300Z,29.50
2017-08-21T13:45:10.852Z,28.90
2017-08-21T13:47:38.398Z,28.20
2017-08-21T13:50:05.914Z,27.50
2017-08-21T13:52:33.447Z,26.60
2017-08-21T13:55:01.011Z,25.70
2017-08-21T13:57:28.539Z,26.50
2017-08-21T13:59:56.075Z,28.00
2017-08-21T14:02:23.595Z,29.10
2017-08-21T14:04:51.114Z,30.10
2017-08-21T14:07:18.670Z,31.10
2017-08-21T14:09:46.192Z,32.40
2017-08-21T14:12:13.714Z,33.70
2017-08-21T14:14:41.233Z,34.30
2017-08-21T14:17:08.758Z,34.60
2017-08-21T14:19:36.307Z,35.40
2017-08-21T14:22:03.830Z,35.50
2017-08-21T14:24:31.356Z,36.10
2017-08-21T14:26:58.873Z,36.20
2017-08-21T14:29:26.401Z,35.70
2017-08-21T14:31:53.948Z,35.10
2017-08-21T14:34:21.475Z,34.60
2017-08-21T14:36:48.999Z,34.70
2017-08-21T14:39:16.513Z,34.60
2017-08-21T14:41:44.038Z,34.50
2017-08-21T14:44:11.589Z,35.10
2017-08-21T14:46:39.114Z,36.00
2017-08-21T14:49:06.634Z,36.20
2017-08-21T14:51:34.202Z,35.40
2017-08-21T14:54:01.726Z,34.70
2017-08-21T14:56:29.278Z,31.80
2017-08-21T14:58:56.808Z,28.60
2017-08-21T15:01:24.337Z,28.60
2017-08-21T15:03:51.857Z,27.90
2017-08-21T15:06:19.390Z,26.60
2017-08-21T15:08:46.938Z,25.30
2017-08-21T15:11:14.475Z,24.10
2017-08-21T15:13:41.998Z,23.10
2017-08-21T15:16:09.523Z,21.30
2017-08-21T15:18:37.066Z,21.00
2017-08-21T15:21:04.630Z,20.60
2017-08-21T15:23:32.157Z,20.40
2017-08-21T15:25:59.682Z,20.70
2017-08-21T15:28:27.206Z,21.00
2017-08-21T15:30:54.730Z,21.90
2017-08-21T15:33:22.270Z,23.30
2017-08-21T15:35:49.802Z,25.00
2017-08-21T15:38:17.329Z,26.40
2017-08-21T15:40:44.868Z,28.00
2017-08-21T15:43:12.396Z,28.90
2017-08-21T15:45:39.950Z,29.60
2017-08-21T15:48:07.526Z,30.50
2017-08-21T15:50:35.051Z,31.00
2017-08-21T15:53:02.586Z,32.70
2017-08-21T15:55:30.110Z,32.90
2017-08-21T15:57:57.770Z,33.30
2017-08-21T16:00:25.294Z,33.20
2017-08-21T16:02:52.822Z,34.50
2017-08-21T16:05:20.344Z,34.60
2017-08-21T16:07:47.869Z,33.00
2017-08-21T16:10:15.419Z,31.90
2017-08-21T16:12:42.942Z,30.90
2017-08-21T16:15:10.469Z,31.20
2017-08-21T16:17:37.996Z,31.40
2017-08-21T16:20:05.523Z,30.90
2017-08-21T16:22:33.042Z,31.00
2017-08-21T16:25:00.562Z,32.00
2017-08-21T16:27:28.105Z,34.30
2017-08-21T16:29:55.617Z,35.40
2017-08-21T16:32:23.138Z,35.90
2017-08-21T16:34:50.681Z,36.50
2017-08-21T16:37:18.198Z,37.50
2017-08-21T16:39:45.718Z,37.90
2017-08-21T16:42:13.266Z,38.50
2017-08-21T16:44:40.791Z,38.30
2017-08-21T16:47:08.321Z,39.30
2017-08-21T16:49:35.865Z,39.20
2017-08-21T16:52:03.390Z,40.50
2017-08-21T16:54:30.909Z,40.90
2017-08-21T16:56:58.462Z,42.00
2017-08-21T16:59:25.982Z,41.20
2017-08-21T17:01:53.498Z,41.50
2017-08-21T17:04:21.046Z,41.20
2017-08-21T17:06:48.562Z,41.00
2017-08-21T17:09:16.086Z,40.60
2017-08-21T17:11:43.606Z,41.00
2017-08-21T17:14:11.130Z,41.60
2017-08-21T17:16:38.679Z,42.10
2017-08-21T17:19:06.200Z,42.10
2017-08-21T17:21:33.717Z,42.20
2017-08-21T17:24:01.238Z,42.10
2017-08-21T17:26:28.761Z,41.80
2017-08-21T17:28:56.309Z,42.00
2017-08-21T17:31:23.834Z,42.70
2017-08-21T17:33:51.357Z,43.00
2017-08-21T17:36:18.889Z,43.00
2017-08-21T17:38:46.441Z,43.60
2017-08-21T17:41:13.970Z,42.60
2017-08-21T17:43:41.497Z,43.00
2017-08-21T17:46:09.015Z,43.50
2017-08-21T17:48:36.549Z,43.80
2017-08-21T17:51:04.094Z,44.00
2017-08-21T17:53:31.605Z,44.50
2017-08-21T17:55:59.122Z,45.00
2017-08-21T17:58:26.672Z,45.50
2017-08-21T18:00:54.202Z,46.30
2017-08-21T18:03:21.746Z,46.70
2017-08-21T18:05:49.270Z,46.60
2017-08-21T18:08:16.789Z,47.30
2017-08-21T18:10:44.322Z,48.30
2017-08-21T18:13:11.851Z,48.10
2017-08-21T18:15:39.415Z,48.10
2017-08-21T18:18:06.944Z,48.50
2017-08-21T18:20:34.477Z,47.90
2017-08-21T18:23:02.002Z,47.90
2017-08-21T18:25:29.525Z,48.40
2017-08-21T18:27:57.046Z,48.30
2017-08-21T18:30:24.574Z,47.90
2017-08-21T18:32:52.096Z,48.30
2017-08-21T18:35:19.646Z,48.50
2017-08-21T18:37:47.166Z,48.30
2017-08-21T18:40:14.710Z,48.60
2017-08-21T18:42:42.285Z,49.10
2017-08-21T18:45:09.801Z,48.90
2017-08-21T18:47:37.322Z,48.20
2017-08-21T18:50:04.850Z,48.10
2017-08-21T18:52:32.373Z,48.70
2017-08-21T18:54:59.930Z,48.90
2017-08-21T18:57:27.462Z,48.70
2017-08-21T18:59:54.987Z,48.70
2017-08-21T19:02:22.510Z,49.30
2017-08-21T19:04:50.039Z,49.70
2017-08-21T19:07:17.602Z,49.80
2017-08-21T19:09:45.147Z,49.40
2017-08-21T19:12:12.685Z,49.50
2017-08-21T19:14:40.213Z,50.20
2017-08-21T19:17:07.770Z,50.20
2017-08-21T19:19:35.314Z,50.70
2017-08-21T19:22:02.838Z,50.60
2017-08-21T19:24:30.365Z,50.40
2017-08-21T19:26:57.913Z,50.50
2017-08-21T19:29:25.446Z,50.80
2017-08-21T19:31:52.997Z,51.10
2017-08-21T19:34:20.534Z,51.30
2017-08-21T19:36:48.401Z,50.90
2017-08-21T19:39:15.932Z,50.90
2017-08-21T19:41:43.476Z,50.90
2017-08-21T19:44:11.026Z,50.80
2017-08-21T19:46:38.551Z,50.60
2017-08-21T19:49:06.082Z,50.30
2017-08-21T19:51:33.627Z,50.20
2017-08-21T19:54:01.202Z,50.70
2017-08-21T19:56:28.817Z,50.80
2017-08-21T19:58:56.395Z,51.10
2017-08-21T20:01:23.934Z,51.70
2017-08-21T20:03:51.509Z,52.00
2017-08-21T20:06:19.060Z,52.20
2017-08-21T20:08:46.639Z,52.40
2017-08-21T20:11:14.193Z,52.20
2017-08-21T20:13:41.851Z,52.20
2017-08-21T20:16:09.397Z,52.10
2017-08-21T20:18:36.959Z,51.90
2017-08-21T20:21:04.534Z,51.70
2017-08-21T20:23:32.069Z,51.40
2017-08-21T20:25:59.620Z,51.40
2017-08-21T20:28:27.183Z,51.50
2017-08-21T20:30:54.742Z,51.10
2017-08-21T20:33:22.307Z,51.10
2017-08-21T20:35:49.843Z,51.00
2017-08-21T20:38:17.403Z,51.00
2017-08-21T20:40:44.942Z,51.00
2017-08-21T20:43:12.481Z,51.30
2017-08-21T20:45:40.058Z,51.60
2017-08-21T20:48:07.612Z,52.30
2017-08-21T20:50:35.155Z,51.80
2017-08-21T20:53:02.707Z,51.60
2017-08-21T20:55:30.306Z,51.60
2017-08-21T20:57:57.894Z,51.50
2017-08-21T21:00:25.431Z,51.70
2017-08-21T21:02:53.003Z,51.70
2017-08-21T21:05:20.546Z,51.80
2017-08-21T21:07:48.098Z,51.80
2017-08-21T21:10:15.667Z,51.60
2017-08-21T21:12:43.215Z,52.00
2017-08-21T21:15:10.762Z,51.90
2017-08-21T21:17:38.305Z,52.10
2017-08-21T21:20:05.879Z,52.10
2017-08-21T21:22:33.454Z,53.00
2017-08-21T21:25:00.987Z,52.90
2017-08-21T21:27:28.518Z,53.00
2017-08-21T21:29:56.049Z,53.40
2017-08-21T21:32:23.581Z,54.60
2017-08-21T21:34:51.140Z,54.70
2017-08-21T21:37:18.694Z,54.50
2017-08-21T21:39:46.222Z,54.60
2017-08-21T21:42:13.754Z,55.30
2017-08-21T21:44:41.290Z,56.50
2017-08-21T21:47:08.861Z,55.40
2017-08-21T21:49:36.390Z,55.60
2017-08-21T21:52:03.930Z,55.90
2017-08-21T21:54:31.450Z,55.60
2017-08-21T21:56:58.978Z,56.10
2017-08-21T21:59:26.538Z,55.90
2017-08-21T22:01:54.059Z,55.90
2017-08-21T22:04:21.577Z,55.50
2017-08-21T22:06:49.129Z,55.50
2017-08-21T22:09:16.649Z,55.30
2017-08-21T22:11:44.195Z,56.20
2017-08-21T22:14:11.817Z,56.50
2017-08-21T22:16:39.342Z,56.00
2017-08-21T22:19:06.871Z,56.00
2017-08-21T22:21:34.406Z,55.70
2017-08-21T22:24:01.953Z,56.40
2017-08-21T22:26:29.482Z,56.30
2017-08-21T22:28:57.006Z,56.30
2017-08-21T22:31:24.534Z,56.30
2017-08-21T22:33:52.057Z,55.60
2017-08-21T22:36:19.601Z,56.20
2017-08-21T22:38:47.130Z,56.30
2017-08-21T22:41:14.650Z,56.50
2017-08-21T22:43:42.179Z,56.70
2017-08-21T22:46:09.709Z,56.80
2017-08-21T22:48:37.255Z,56.90
2017-08-21T22:51:04.781Z,56.70
2017-08-21T22:53:32.318Z,56.90
2017-08-21T22:55:59.847Z,57.30
2017-08-21T22:58:27.373Z,57.80
2017-08-21T23:00:54.925Z,57.80
2017-08-21T23:03:22.447Z,57.70
2017-08-21T23:05:49.975Z,58.00
2017-08-21T23:08:17.498Z,58.20
2017-08-21T23:10:45.021Z,57.80
2017-08-21T23:13:12.572Z,58.40
2017-08-21T23:15:40.094Z,58.40
2017-08-21T23:18:07.618Z,58.60
2017-08-21T23:20:35.147Z,57.80
2017-08-21T23:23:02.671Z,58.20
2017-08-21T23:25:30.226Z,58.70
2017-08-21T23:27:57.755Z,58.60
2017-08-21T23:30:25.282Z,59.40
2017-08-21T23:32:52.811Z,59.40
2017-08-21T23:35:20.342Z,59.20
2017-08-21T23:37:47.890Z,59.60
2017-08-21T23:40:15.486Z,59.80
2017-08-21T23:42:43.006Z,59.70
2017-08-21T23:45:10.534Z,59.70
2017-08-21T23:47:38.066Z,59.70
2017-08-21T23:50:05.610Z,59.80
2017-08-21T23:52:33.134Z,59.60
2017-08-21T23:55:00.655Z,59.30
2017-08-21T23:57:28.174Z,59.60
2017-08-21T23:59:55.702Z,59.60
